sensor_id;sensor_type;location;lat;lon;timestamp;pressure;altitude;pressure_sealevel;temperature;humidity
21102;BME280;10709;49.006;12.100;2023-08-21T00:01:02;48853.78;;;-146.00;68.58
21102;BME280;10709;49.006;12.100;2023-08-21T00:03:29;48871.41;;;-146.00;68.73
21102;BME280;10709;49.006;12.100;2023-08-21T00:05:56;48887.09;;;-146.00;68.74
21102;BME280;10709;49.006;12.100;2023-08-21T00:08:23;48855.75;;;-146.00;68.50
21102;BME280;10709;49.006;12.100;2023-08-21T00:10:49;48867.50;;;-146.00;68.70
21102;BME280;10709;49.006;12.100;2023-08-21T00:13:16;48851.81;;;-146.00;68.69
21102;BME280;10709;49.006;12.100;2023-08-21T00:15:42;48847.91;;;-146.00;68.57
21102;BME280;10709;49.006;12.100;2023-08-21T00:18:09;48844.00;;;-146.00;68.44
21102;BME280;10709;49.006;12.100;2023-08-21T00:20:35;48871.41;;;-146.00;68.68
21102;BME280;10709;49.006;12.100;2023-08-21T00:23:02;48842.03;;;-146.00;69.08
21102;BME280;10709;49.006;12.100;2023-08-21T00:25:29;48853.78;;;-146.00;69.51
21102;BME280;10709;49.006;12.100;2023-08-21T00:27:55;48879.25;;;-146.00;69.59
21102;BME280;10709;49.006;12.100;2023-08-21T00:30:22;48879.25;;;-146.00;69.51
21102;BME280;10709;49.006;12.100;2023-08-21T00:32:48;48894.91;;;-146.00;69.74
21102;BME280;10709;49.006;12.100;2023-08-21T00:35:15;48851.81;;;-146.00;69.73
21102;BME280;10709;49.006;12.100;2023-08-21T00:37:41;48867.50;;;-146.00;70.16
21102;BME280;10709;49.006;12.100;2023-08-21T00:40:08;48855.75;;;-146.00;70.00
21102;BME280;10709;49.006;12.100;2023-08-21T00:42:35;48842.03;;;-146.00;70.06
21102;BME280;10709;49.006;12.100;2023-08-21T00:45:02;48844.00;;;-146.00;70.57
21102;BME280;10709;49.006;12.100;2023-08-21T00:47:29;48828.31;;;-146.00;70.74
21102;BME280;10709;49.006;12.100;2023-08-21T00:49:56;48847.91;;;-146.00;70.86
21102;BME280;10709;49.006;12.100;2023-08-21T00:52:23;48808.72;;;-146.00;70.69
21102;BME280;10709;49.006;12.100;2023-08-21T00:54:50;48891.00;;;-146.00;70.70
21102;BME280;10709;49.006;12.100;2023-08-21T00:57:17;48863.56;;;-146.00;70.68
21102;BME280;10709;49.006;12.100;2023-08-21T00:59:44;48861.63;;;-146.00;70.57
21102;BME280;10709;49.006;12.100;2023-08-21T01:02:10;48847.91;;;-146.00;70.54
21102;BME280;10709;49.006;12.100;2023-08-21T01:04:38;48861.63;;;-146.00;70.42
21102;BME280;10709;49.006;12.100;2023-08-21T01:07:04;48847.91;;;-146.00;70.34
21102;BME280;10709;49.006;12.100;2023-08-21T01:12:32;48859.66;;;-146.00;70.71
21102;BME280;10709;49.006;12.100;2023-08-21T01:15:04;48838.09;;;-146.00;70.94
21102;BME280;10709;49.006;12.100;2023-08-21T01:17:34;48836.16;;;-146.00;70.85
21102;BME280;10709;49.006;12.100;2023-08-21T01:20:03;48861.63;;;-146.00;70.75
21102;BME280;10709;49.006;12.100;2023-08-21T01:22:36;48859.66;;;-146.00;71.12
21102;BME280;10709;49.006;12.100;2023-08-21T01:25:04;48855.75;;;-146.00;70.82
21102;BME280;10709;49.006;12.100;2023-08-21T01:27:33;48853.78;;;-146.00;70.90
21102;BME280;10709;49.006;12.100;2023-08-21T01:30:01;48824.41;;;-146.00;70.95
21102;BME280;10709;49.006;12.100;2023-08-21T01:35:24;48859.66;;;-146.00;70.96
21102;BME280;10709;49.006;12.100;2023-08-21T01:37:51;48879.25;;;-146.00;71.03
21102;BME280;10709;49.006;12.100;2023-08-21T01:40:24;48840.06;;;-146.00;71.30
21102;BME280;10709;49.006;12.100;2023-08-21T01:42:52;48834.19;;;-146.00;71.27
21102;BME280;10709;49.006;12.100;2023-08-21T01:45:19;48879.25;;;-146.00;71.31
21102;BME280;10709;49.006;12.100;2023-08-21T01:47:46;48881.22;;;-146.00;71.29
21102;BME280;10709;49.006;12.100;2023-08-21T01:50:13;48830.28;;;-146.00;71.37
21102;BME280;10709;49.006;12.100;2023-08-21T01:52:39;48847.91;;;-146.00;71.45
21102;BME280;10709;49.006;12.100;2023-08-21T01:55:06;48834.19;;;-146.00;71.25
21102;BME280;10709;49.006;12.100;2023-08-21T01:57:37;48859.66;;;-146.00;71.64
21102;BME280;10709;49.006;12.100;2023-08-21T02:00:04;48847.91;;;-146.00;72.02
21102;BME280;10709;49.006;12.100;2023-08-21T02:02:31;48855.75;;;-146.00;71.78
21102;BME280;10709;49.006;12.100;2023-08-21T02:04:58;48855.75;;;-146.00;71.90
21102;BME280;10709;49.006;12.100;2023-08-21T02:07:24;48838.09;;;-146.00;72.13
21102;BME280;10709;49.006;12.100;2023-08-21T02:09:51;48851.81;;;-146.00;71.97
21102;BME280;10709;49.006;12.100;2023-08-21T02:12:18;48842.03;;;-146.00;72.01
21102;BME280;10709;49.006;12.100;2023-08-21T02:14:44;48855.75;;;-146.00;72.05
21102;BME280;10709;49.006;12.100;2023-08-21T02:17:11;48861.63;;;-146.00;71.93
21102;BME280;10709;49.006;12.100;2023-08-21T02:19:37;48845.94;;;-146.00;72.02
21102;BME280;10709;49.006;12.100;2023-08-21T02:22:04;48883.16;;;-146.00;72.39
21102;BME280;10709;49.006;12.100;2023-08-21T02:24:31;48859.66;;;-146.00;72.38
21102;BME280;10709;49.006;12.100;2023-08-21T02:26:57;48844.00;;;-146.00;72.50
21102;BME280;10709;49.006;12.100;2023-08-21T02:29:23;48844.00;;;-146.00;72.48
21102;BME280;10709;49.006;12.100;2023-08-21T02:31:50;48836.16;;;-146.00;72.75
21102;BME280;10709;49.006;12.100;2023-08-21T02:34:16;48871.41;;;-146.00;72.68
21102;BME280;10709;49.006;12.100;2023-08-21T02:36:43;48871.41;;;-146.00;72.74
21102;BME280;10709;49.006;12.100;2023-08-21T02:39:10;48844.00;;;-146.00;73.31
21102;BME280;10709;49.006;12.100;2023-08-21T02:41:36;48844.00;;;-146.00;73.35
21102;BME280;10709;49.006;12.100;2023-08-21T02:44:03;48871.41;;;-146.00;73.44
21102;BME280;10709;49.006;12.100;2023-08-21T02:46:29;48855.75;;;-146.00;73.54
21102;BME280;10709;49.006;12.100;2023-08-21T02:48:56;48863.56;;;-146.00;74.01
21102;BME280;10709;49.006;12.100;2023-08-21T02:51:22;48877.28;;;-146.00;73.88
21102;BME280;10709;49.006;12.100;2023-08-21T02:53:49;48840.06;;;-146.00;73.97
21102;BME280;10709;49.006;12.100;2023-08-21T02:56:15;48834.19;;;-146.00;73.73
21102;BME280;10709;49.006;12.100;2023-08-21T02:58:42;48838.09;;;-146.00;73.99
21102;BME280;10709;49.006;12.100;2023-08-21T03:01:08;48867.50;;;-146.00;73.97
21102;BME280;10709;49.006;12.100;2023-08-21T03:03:35;48847.91;;;-146.00;73.86
21102;BME280;10709;49.006;12.100;2023-08-21T03:06:04;48812.63;;;-146.00;73.94
21102;BME280;10709;49.006;12.100;2023-08-21T03:08:31;48869.44;;;-146.00;73.87
21102;BME280;10709;49.006;12.100;2023-08-21T03:10:57;48867.50;;;-146.00;74.11
21102;BME280;10709;49.006;12.100;2023-08-21T03:13:24;48851.81;;;-146.00;74.21
21102;BME280;10709;49.006;12.100;2023-08-21T03:15:51;48853.78;;;-146.00;74.50
21102;BME280;10709;49.006;12.100;2023-08-21T03:18:18;48812.63;;;-146.00;74.54
21102;BME280;10709;49.006;12.100;2023-08-21T03:20:45;48832.22;;;-146.00;74.49
21102;BME280;10709;49.006;12.100;2023-08-21T03:23:12;48845.94;;;-146.00;74.38
21102;BME280;10709;49.006;12.100;2023-08-21T03:25:39;48859.66;;;-146.00;75.11
21102;BME280;10709;49.006;12.100;2023-08-21T03:28:05;48808.72;;;-146.00;74.78
21102;BME280;10709;49.006;12.100;2023-08-21T03:30:32;48855.75;;;-146.00;75.10
21102;BME280;10709;49.006;12.100;2023-08-21T03:32:58;48871.41;;;-146.00;75.19
21102;BME280;10709;49.006;12.100;2023-08-21T03:35:25;48847.91;;;-146.00;74.79
21102;BME280;10709;49.006;12.100;2023-08-21T03:37:52;48855.75;;;-146.00;74.99
21102;BME280;10709;49.006;12.100;2023-08-21T03:40:18;48863.56;;;-146.00;75.21
21102;BME280;10709;49.006;12.100;2023-08-21T03:42:45;48861.63;;;-146.00;75.39
21102;BME280;10709;49.006;12.100;2023-08-21T03:45:11;48879.25;;;-146.00;75.37
21102;BME280;10709;49.006;12.100;2023-08-21T03:47:38;48855.75;;;-146.00;75.04
21102;BME280;10709;49.006;12.100;2023-08-21T03:50:04;48849.88;;;-146.00;75.28
21102;BME280;10709;49.006;12.100;2023-08-21T03:52:31;48828.31;;;-146.00;75.41
21102;BME280;10709;49.006;12.100;2023-08-21T03:54:58;48863.56;;;-146.00;75.56
21102;BME280;10709;49.006;12.100;2023-08-21T03:57:24;48883.16;;;-146.00;75.78
21102;BME280;10709;49.006;12.100;2023-08-21T03:59:51;48894.91;;;-146.00;75.67
21102;BME280;10709;49.006;12.100;2023-08-21T04:02:17;48840.06;;;-146.00;75.84
21102;BME280;10709;49.006;12.100;2023-08-21T04:04:44;48859.66;;;-146.00;76.11
21102;BME280;10709;49.006;12.100;2023-08-21T04:07:12;48847.91;;;-146.00;75.92
21102;BME280;10709;49.006;12.100;2023-08-21T04:09:39;48836.16;;;-146.00;75.89
21102;BME280;10709;49.006;12.100;2023-08-21T04:12:06;48859.66;;;-146.00;76.27
21102;BME280;10709;49.006;12.100;2023-08-21T04:14:32;48851.81;;;-146.00;76.25
21102;BME280;10709;49.006;12.100;2023-08-21T04:16:59;48855.75;;;-146.00;76.13
21102;BME280;10709;49.006;12.100;2023-08-21T04:19:25;48844.00;;;-146.00;76.60
21102;BME280;10709;49.006;12.100;2023-08-21T04:21:56;48894.91;;;-146.00;77.40
21102;BME280;10709;49.006;12.100;2023-08-21T04:24:22;48863.56;;;-146.00;78.07
21102;BME280;10709;49.006;12.100;2023-08-21T04:26:49;48898.84;;;-146.00;78.77
21102;BME280;10709;49.006;12.100;2023-08-21T04:29:15;48855.75;;;-146.00;79.36
21102;BME280;10709;49.006;12.100;2023-08-21T04:31:42;48887.09;;;-146.00;79.40
21102;BME280;10709;49.006;12.100;2023-08-21T04:34:08;48891.00;;;-146.00;79.89
21102;BME280;10709;49.006;12.100;2023-08-21T04:36:35;48871.41;;;-146.00;80.51
21102;BME280;10709;49.006;12.100;2023-08-21T04:39:01;48847.91;;;-146.00;80.62
21102;BME280;10709;49.006;12.100;2023-08-21T04:41:28;48881.22;;;-146.00;80.70
21102;BME280;10709;49.006;12.100;2023-08-21T04:43:55;48861.63;;;-146.00;81.36
21102;BME280;10709;49.006;12.100;2023-08-21T04:46:21;48853.78;;;-146.00;81.53
21102;BME280;10709;49.006;12.100;2023-08-21T04:48:48;48851.81;;;-146.00;81.54
21102;BME280;10709;49.006;12.100;2023-08-21T04:51:15;48894.91;;;-146.00;82.52
21102;BME280;10709;49.006;12.100;2023-08-21T04:53:41;48902.75;;;-146.00;82.73
21102;BME280;10709;49.006;12.100;2023-08-21T04:56:08;48879.25;;;-146.00;82.46
21102;BME280;10709;49.006;12.100;2023-08-21T04:58:37;48863.56;;;-146.00;82.01
21102;BME280;10709;49.006;12.100;2023-08-21T05:01:04;48894.91;;;-146.00;81.82
21102;BME280;10709;49.006;12.100;2023-08-21T05:03:31;48894.91;;;-146.00;81.68
21102;BME280;10709;49.006;12.100;2023-08-21T05:05:58;48847.91;;;-146.00;81.70
21102;BME280;10709;49.006;12.100;2023-08-21T05:08:25;48908.63;;;-146.00;81.54
21102;BME280;10709;49.006;12.100;2023-08-21T05:10:59;48867.50;;;-146.00;81.65
21102;BME280;10709;49.006;12.100;2023-08-21T05:13:26;48912.56;;;-146.00;81.47
21102;BME280;10709;49.006;12.100;2023-08-21T05:15:56;48910.59;;;-146.00;81.45
21102;BME280;10709;49.006;12.100;2023-08-21T05:18:24;48939.97;;;-146.00;80.98
21102;BME280;10709;49.006;12.100;2023-08-21T05:20:53;48912.56;;;-146.00;80.90
21102;BME280;10709;49.006;12.100;2023-08-21T05:23:20;48902.75;;;-146.00;81.02
21102;BME280;10709;49.006;12.100;2023-08-21T05:25:48;48887.09;;;-146.00;81.32
21102;BME280;10709;49.006;12.100;2023-08-21T05:28:15;48859.66;;;-146.00;80.49
21102;BME280;10709;49.006;12.100;2023-08-21T05:30:42;48922.34;;;-146.00;80.91
21102;BME280;10709;49.006;12.100;2023-08-21T05:33:09;48898.84;;;-146.00;81.07
21102;BME280;10709;49.006;12.100;2023-08-21T05:35:36;48881.22;;;-146.00;81.07
21102;BME280;10709;49.006;12.100;2023-08-21T05:38:03;48871.41;;;-146.00;82.30
21102;BME280;10709;49.006;12.100;2023-08-21T05:40:30;48920.38;;;-146.00;84.31
21102;BME280;10709;49.006;12.100;2023-08-21T05:42:57;48910.59;;;-146.00;84.60
21102;BME280;10709;49.006;12.100;2023-08-21T05:45:24;48887.09;;;-146.00;83.95
21102;BME280;10709;49.006;12.100;2023-08-21T05:47:50;48875.34;;;-146.00;84.13
21102;BME280;10709;49.006;12.100;2023-08-21T05:50:17;48887.09;;;-146.00;83.31
21102;BME280;10709;49.006;12.100;2023-08-21T05:52:43;48934.09;;;-146.00;82.50
21102;BME280;10709;49.006;12.100;2023-08-21T05:55:10;48863.56;;;-146.00;81.72
21102;BME280;10709;49.006;12.100;2023-08-21T05:57:37;48883.16;;;-146.00;81.68
21102;BME280;10709;49.006;12.100;2023-08-21T06:00:04;48887.09;;;-146.00;81.48
21102;BME280;10709;49.006;12.100;2023-08-21T06:02:34;48871.41;;;-146.00;81.25
21102;BME280;10709;49.006;12.100;2023-08-21T06:05:01;48904.72;;;-146.00;80.62
21102;BME280;10709;49.006;12.100;2023-08-21T06:07:29;48924.31;;;-146.00;80.13
21102;BME280;10709;49.006;12.100;2023-08-21T06:09:55;48910.59;;;-146.00;79.63
21102;BME280;10709;49.006;12.100;2023-08-21T06:12:22;48906.69;;;-146.00;78.48
21102;BME280;10709;49.006;12.100;2023-08-21T06:14:48;48879.25;;;-146.00;77.98
21102;BME280;10709;49.006;12.100;2023-08-21T06:17:15;48885.13;;;-146.00;77.59
21102;BME280;10709;49.006;12.100;2023-08-21T06:19:42;48894.91;;;-146.00;77.30
21102;BME280;10709;49.006;12.100;2023-08-21T06:22:08;48885.13;;;-146.00;78.18
21102;BME280;10709;49.006;12.100;2023-08-21T06:24:35;48883.16;;;-146.00;77.27
21102;BME280;10709;49.006;12.100;2023-08-21T06:27:02;48859.66;;;-146.00;75.89
21102;BME280;10709;49.006;12.100;2023-08-21T06:29:31;48887.09;;;-146.00;76.82
21102;BME280;10709;49.006;12.100;2023-08-21T06:31:58;48906.69;;;-146.00;76.96
21102;BME280;10709;49.006;12.100;2023-08-21T06:34:25;48879.25;;;-146.00;77.63
21102;BME280;10709;49.006;12.100;2023-08-21T06:36:51;48871.41;;;-146.00;77.33
21102;BME280;10709;49.006;12.100;2023-08-21T06:39:18;48894.91;;;-146.00;76.42
21102;BME280;10709;49.006;12.100;2023-08-21T06:41:44;48892.97;;;-146.00;76.30
21102;BME280;10709;49.006;12.100;2023-08-21T06:44:11;48910.59;;;-146.00;75.87
21102;BME280;10709;49.006;12.100;2023-08-21T06:46:37;48859.66;;;-146.00;75.20
21102;BME280;10709;49.006;12.100;2023-08-21T06:49:04;48869.44;;;-146.00;74.38
21102;BME280;10709;49.006;12.100;2023-08-21T06:51:30;48881.22;;;-146.00;74.41
21102;BME280;10709;49.006;12.100;2023-08-21T06:53:57;48928.22;;;-146.00;74.84
21102;BME280;10709;49.006;12.100;2023-08-21T06:56:23;48891.00;;;-146.00;74.58
21102;BME280;10709;49.006;12.100;2023-08-21T06:58:50;48887.09;;;-146.00;74.12
21102;BME280;10709;49.006;12.100;2023-08-21T07:01:17;48902.75;;;-146.00;75.48
21102;BME280;10709;49.006;12.100;2023-08-21T07:03:43;48926.25;;;-146.00;75.64
21102;BME280;10709;49.006;12.100;2023-08-21T07:06:10;48922.34;;;-146.00;74.78
21102;BME280;10709;49.006;12.100;2023-08-21T07:08:36;48916.47;;;-146.00;74.87
21102;BME280;10709;49.006;12.100;2023-08-21T07:11:04;48898.84;;;-146.00;74.17
21102;BME280;10709;49.006;12.100;2023-08-21T07:13:30;48879.25;;;-146.00;73.20
21102;BME280;10709;49.006;12.100;2023-08-21T07:15:57;48863.56;;;-146.00;73.58
21102;BME280;10709;49.006;12.100;2023-08-21T07:18:24;48894.91;;;-146.00;74.64
21102;BME280;10709;49.006;12.100;2023-08-21T07:20:54;48910.59;;;-146.00;72.63
21102;BME280;10709;49.006;12.100;2023-08-21T07:23:20;48894.91;;;-146.00;72.92
21102;BME280;10709;49.006;12.100;2023-08-21T07:25:47;48894.91;;;-146.00;73.05
21102;BME280;10709;49.006;12.100;2023-08-21T07:28:13;48914.50;;;-146.00;71.95
21102;BME280;10709;49.006;12.100;2023-08-21T07:30:40;48875.34;;;-146.00;72.79
21102;BME280;10709;49.006;12.100;2023-08-21T07:33:07;48877.28;;;-146.00;72.00
21102;BME280;10709;49.006;12.100;2023-08-21T07:35:34;48894.91;;;-146.00;71.11
21102;BME280;10709;49.006;12.100;2023-08-21T07:38:00;48869.44;;;-146.00;71.07
21102;BME280;10709;49.006;12.100;2023-08-21T07:40:27;48900.78;;;-146.00;69.79
21102;BME280;10709;49.006;12.100;2023-08-21T07:42:53;48851.81;;;-146.00;67.16
21102;BME280;10709;49.006;12.100;2023-08-21T07:45:20;48883.16;;;-146.00;65.91
21102;BME280;10709;49.006;12.100;2023-08-21T07:47:46;48934.09;;;-146.00;65.48
21102;BME280;10709;49.006;12.100;2023-08-21T07:50:30;48859.66;;;-146.00;64.62
21102;BME280;10709;49.006;12.100;2023-08-21T07:52:57;48891.00;;;-146.00;63.91
21102;BME280;10709;49.006;12.100;2023-08-21T07:55:23;48910.59;;;-146.00;63.67
21102;BME280;10709;49.006;12.100;2023-08-21T07:57:50;48918.44;;;-146.00;65.48
21102;BME280;10709;49.006;12.100;2023-08-21T08:00:16;48902.75;;;-146.00;64.88
21102;BME280;10709;49.006;12.100;2023-08-21T08:02:44;48904.72;;;-146.00;65.34
21102;BME280;10709;49.006;12.100;2023-08-21T08:05:11;48898.84;;;-146.00;65.55
21102;BME280;10709;49.006;12.100;2023-08-21T08:07:37;48887.09;;;-146.00;65.55
21102;BME280;10709;49.006;12.100;2023-08-21T08:10:04;48885.13;;;-146.00;65.70
21102;BME280;10709;49.006;12.100;2023-08-21T08:12:30;48851.81;;;-146.00;65.66
21102;BME280;10709;49.006;12.100;2023-08-21T08:15:00;48894.91;;;-146.00;66.40
21102;BME280;10709;49.006;12.100;2023-08-21T08:17:27;48894.91;;;-146.00;66.29
21102;BME280;10709;49.006;12.100;2023-08-21T08:20:03;48879.25;;;-146.00;65.43
21102;BME280;10709;49.006;12.100;2023-08-21T08:22:32;48871.41;;;-146.00;65.70
21102;BME280;10709;49.006;12.100;2023-08-21T08:24:59;48879.25;;;-146.00;65.22
21102;BME280;10709;49.006;12.100;2023-08-21T08:27:25;48891.00;;;-146.00;65.47
21102;BME280;10709;49.006;12.100;2023-08-21T08:29:52;48894.91;;;-146.00;65.75
21102;BME280;10709;49.006;12.100;2023-08-21T08:32:18;48877.28;;;-146.00;66.50
21102;BME280;10709;49.006;12.100;2023-08-21T08:34:45;48891.00;;;-146.00;66.91
21102;BME280;10709;49.006;12.100;2023-08-21T08:37:13;48910.59;;;-146.00;66.42
21102;BME280;10709;49.006;12.100;2023-08-21T08:39:39;48877.28;;;-146.00;65.05
21102;BME280;10709;49.006;12.100;2023-08-21T08:42:07;48910.59;;;-146.00;64.44
21102;BME280;10709;49.006;12.100;2023-08-21T08:44:35;48883.16;;;-146.00;64.83
21102;BME280;10709;49.006;12.100;2023-08-21T08:47:03;48902.75;;;-146.00;64.57
21102;BME280;10709;49.006;12.100;2023-08-21T08:49:31;48906.69;;;-146.00;63.32
21102;BME280;10709;49.006;12.100;2023-08-21T08:51:59;48855.75;;;-146.00;65.97
21102;BME280;10709;49.006;12.100;2023-08-21T08:54:27;48877.28;;;-146.00;65.38
21102;BME280;10709;49.006;12.100;2023-08-21T08:56:54;48898.84;;;-146.00;65.14
21102;BME280;10709;49.006;12.100;2023-08-21T08:59:20;48851.81;;;-146.00;65.67
21102;BME280;10709;49.006;12.100;2023-08-21T09:01:47;48883.16;;;-146.00;64.60
21102;BME280;10709;49.006;12.100;2023-08-21T09:04:16;48891.00;;;-146.00;64.07
21102;BME280;10709;49.006;12.100;2023-08-21T09:06:42;48877.28;;;-146.00;64.58
21102;BME280;10709;49.006;12.100;2023-08-21T09:09:09;48910.59;;;-146.00;62.08
21102;BME280;10709;49.006;12.100;2023-08-21T09:11:43;48926.25;;;-146.00;61.14
21102;BME280;10709;49.006;12.100;2023-08-21T09:14:10;48883.16;;;-146.00;62.34
21102;BME280;10709;49.006;12.100;2023-08-21T09:16:56;48887.09;;;-146.00;62.84
21102;BME280;10709;49.006;12.100;2023-08-21T09:19:23;48891.00;;;-146.00;62.63
21102;BME280;10709;49.006;12.100;2023-08-21T09:21:50;48883.16;;;-146.00;62.74
21102;BME280;10709;49.006;12.100;2023-08-21T09:24:17;48898.84;;;-146.00;63.11
21102;BME280;10709;49.006;12.100;2023-08-21T09:26:43;48847.91;;;-146.00;63.40
21102;BME280;10709;49.006;12.100;2023-08-21T09:29:10;48916.47;;;-146.00;64.78
21102;BME280;10709;49.006;12.100;2023-08-21T09:31:36;48914.50;;;-146.00;63.46
21102;BME280;10709;49.006;12.100;2023-08-21T09:34:06;48879.25;;;-146.00;62.78
21102;BME280;10709;49.006;12.100;2023-08-21T09:36:33;48898.84;;;-146.00;66.21
21102;BME280;10709;49.006;12.100;2023-08-21T09:39:01;48902.75;;;-146.00;63.67
21102;BME280;10709;49.006;12.100;2023-08-21T09:41:28;48885.13;;;-146.00;62.73
21102;BME280;10709;49.006;12.100;2023-08-21T09:44:01;48916.47;;;-146.00;62.05
21102;BME280;10709;49.006;12.100;2023-08-21T09:46:29;48904.72;;;-146.00;62.54
21102;BME280;10709;49.006;12.100;2023-08-21T09:48:55;48918.44;;;-146.00;61.50
21102;BME280;10709;49.006;12.100;2023-08-21T09:51:22;48883.16;;;-146.00;61.96
21102;BME280;10709;49.006;12.100;2023-08-21T09:53:49;48902.75;;;-146.00;62.36
21102;BME280;10709;49.006;12.100;2023-08-21T09:56:19;48883.16;;;-146.00;61.75
21102;BME280;10709;49.006;12.100;2023-08-21T09:58:50;48920.38;;;-146.00;61.22
21102;BME280;10709;49.006;12.100;2023-08-21T10:01:20;48871.41;;;-146.00;61.83
21102;BME280;10709;49.006;12.100;2023-08-21T10:03:47;48906.69;;;-146.00;61.50
21102;BME280;10709;49.006;12.100;2023-08-21T10:06:17;48891.00;;;-146.00;59.13
21102;BME280;10709;49.006;12.100;2023-08-21T10:08:53;48916.47;;;-146.00;60.39
21102;BME280;10709;49.006;12.100;2023-08-21T10:11:20;48906.69;;;-146.00;59.37
21102;BME280;10709;49.006;12.100;2023-08-21T10:13:47;48914.50;;;-146.00;57.93
21102;BME280;10709;49.006;12.100;2023-08-21T10:16:16;48930.19;;;-146.00;58.37
21102;BME280;10709;49.006;12.100;2023-08-21T10:18:45;48892.97;;;-146.00;57.39
21102;BME280;10709;49.006;12.100;2023-08-21T10:21:16;48910.59;;;-146.00;58.53
21102;BME280;10709;49.006;12.100;2023-08-21T10:23:48;48894.91;;;-146.00;58.60
21102;BME280;10709;49.006;12.100;2023-08-21T10:26:15;48896.88;;;-146.00;57.79
21102;BME280;10709;49.006;12.100;2023-08-21T10:28:55;48891.00;;;-146.00;55.01
21102;BME280;10709;49.006;12.100;2023-08-21T10:31:27;48961.53;;;-146.00;54.59
21102;BME280;10709;49.006;12.100;2023-08-21T10:33:58;48957.59;;;-146.00;54.65
21102;BME280;10709;49.006;12.100;2023-08-21T10:42:11;48930.19;;;-146.00;55.37
21102;BME280;10709;49.006;12.100;2023-08-21T10:47:22;48912.56;;;-146.00;55.83
21102;BME280;10709;49.006;12.100;2023-08-21T10:49:51;48924.31;;;-146.00;56.57
21102;BME280;10709;49.006;12.100;2023-08-21T10:54:52;48945.84;;;-146.00;54.65
21102;BME280;10709;49.006;12.100;2023-08-21T10:57:19;48916.47;;;-146.00;55.98
21102;BME280;10709;49.006;12.100;2023-08-21T11:00:05;48920.38;;;-146.00;53.33
21102;BME280;10709;49.006;12.100;2023-08-21T11:02:40;48941.94;;;-146.00;51.50
21102;BME280;10709;49.006;12.100;2023-08-21T11:05:08;48926.25;;;-146.00;49.44
21102;BME280;10709;49.006;12.100;2023-08-21T11:07:39;48922.34;;;-146.00;48.74
21102;BME280;10709;49.006;12.100;2023-08-21T11:10:07;48932.13;;;-146.00;51.14
21102;BME280;10709;49.006;12.100;2023-08-21T11:12:38;48900.78;;;-146.00;50.67
21102;BME280;10709;49.006;12.100;2023-08-21T11:15:05;48926.25;;;-146.00;51.12
21102;BME280;10709;49.006;12.100;2023-08-21T11:17:32;48951.72;;;-146.00;52.64
21102;BME280;10709;49.006;12.100;2023-08-21T11:20:01;48938.03;;;-146.00;51.68
21102;BME280;10709;49.006;12.100;2023-08-21T11:22:29;48879.25;;;-146.00;51.23
21102;BME280;10709;49.006;12.100;2023-08-21T11:24:56;48914.50;;;-146.00;51.28
21102;BME280;10709;49.006;12.100;2023-08-21T11:27:23;48902.75;;;-146.00;51.46
21102;BME280;10709;49.006;12.100;2023-08-21T11:29:51;48904.72;;;-146.00;52.52
21102;BME280;10709;49.006;12.100;2023-08-21T11:32:20;48926.25;;;-146.00;50.96
21102;BME280;10709;49.006;12.100;2023-08-21T11:34:55;48906.69;;;-146.00;50.47
21102;BME280;10709;49.006;12.100;2023-08-21T11:37:24;48894.91;;;-146.00;49.75
21102;BME280;10709;49.006;12.100;2023-08-21T11:39:58;48930.19;;;-146.00;51.86
21102;BME280;10709;49.006;12.100;2023-08-21T11:42:31;48930.19;;;-146.00;50.00
21102;BME280;10709;49.006;12.100;2023-08-21T11:44:59;48934.09;;;-146.00;50.68
21102;BME280;10709;49.006;12.100;2023-08-21T11:47:34;48926.25;;;-146.00;50.32
21102;BME280;10709;49.006;12.100;2023-08-21T11:50:06;48922.34;;;-146.00;52.26
21102;BME280;10709;49.006;12.100;2023-08-21T11:52:33;48922.34;;;-146.00;51.25
21102;BME280;10709;49.006;12.100;2023-08-21T11:55:02;48941.94;;;-146.00;50.65
21102;BME280;10709;49.006;12.100;2023-08-21T11:57:29;48936.06;;;-146.00;50.57
21102;BME280;10709;49.006;12.100;2023-08-21T11:59:56;48926.25;;;-146.00;50.44
21102;BME280;10709;49.006;12.100;2023-08-21T12:02:24;48932.13;;;-146.00;50.55
21102;BME280;10709;49.006;12.100;2023-08-21T12:04:53;48941.94;;;-146.00;51.18
21102;BME280;10709;49.006;12.100;2023-08-21T12:07:21;48949.78;;;-146.00;50.92
21102;BME280;10709;49.006;12.100;2023-08-21T12:09:48;48951.72;;;-146.00;51.70
21102;BME280;10709;49.006;12.100;2023-08-21T12:12:15;48914.50;;;-146.00;50.91
21102;BME280;10709;49.006;12.100;2023-08-21T12:14:42;48947.81;;;-146.00;51.53
21102;BME280;10709;49.006;12.100;2023-08-21T12:17:09;48932.13;;;-146.00;51.66
21102;BME280;10709;49.006;12.100;2023-08-21T12:19:35;48922.34;;;-146.00;51.13
21102;BME280;10709;49.006;12.100;2023-08-21T12:22:03;48945.84;;;-146.00;51.35
21102;BME280;10709;49.006;12.100;2023-08-21T12:24:30;48941.94;;;-146.00;51.41
21102;BME280;10709;49.006;12.100;2023-08-21T12:26:57;48959.56;;;-146.00;51.04
21102;BME280;10709;49.006;12.100;2023-08-21T12:29:24;48961.53;;;-146.00;51.60
21102;BME280;10709;49.006;12.100;2023-08-21T12:31:50;48916.47;;;-146.00;52.64
21102;BME280;10709;49.006;12.100;2023-08-21T12:34:17;48918.44;;;-146.00;51.46
21102;BME280;10709;49.006;12.100;2023-08-21T12:36:43;48910.59;;;-146.00;51.16
21102;BME280;10709;49.006;12.100;2023-08-21T12:39:10;48881.22;;;-146.00;49.95
21102;BME280;10709;49.006;12.100;2023-08-21T12:41:36;48922.34;;;-146.00;52.40
21102;BME280;10709;49.006;12.100;2023-08-21T12:44:03;48945.84;;;-146.00;50.76
21102;BME280;10709;49.006;12.100;2023-08-21T12:46:30;48938.03;;;-146.00;51.17
21102;BME280;10709;49.006;12.100;2023-08-21T12:48:57;48934.09;;;-146.00;50.49